createdAt,value
2018-06-28T00:00:20.223Z,0.00
2018-06-28T00:01:20.219Z,0.00
2018-06-28T00:02:20.278Z,0.00
2018-06-28T00:03:20.243Z,0.00
2018-06-28T00:04:20.259Z,0.00
2018-06-28T00:05:20.264Z,0.00
2018-06-28T00:06:20.317Z,0.00
2018-06-28T00:07:20.329Z,0.00
2018-06-28T00:08:20.365Z,0.00
2018-06-28T00:09:20.327Z,0.00
2018-06-28T00:10:20.351Z,0.00
2018-06-28T00:11:20.344Z,0.00
2018-06-28T00:12:20.363Z,0.00
2018-06-28T00:13:20.438Z,0.00
2018-06-28T00:14:20.396Z,0.00
2018-06-28T00:15:20.408Z,0.00
2018-06-28T00:16:20.415Z,0.00
2018-06-28T00:17:20.444Z,0.00
2018-06-28T00:18:20.480Z,0.00
2018-06-28T00:19:20.457Z,0.00
2018-06-28T00:20:20.473Z,0.00
2018-06-28T00:21:20.475Z,0.00
2018-06-28T00:22:20.489Z,0.00
2018-06-28T00:23:20.539Z,0.00
2018-06-28T00:24:20.534Z,0.00
2018-06-28T00:25:20.552Z,0.00
2018-06-28T00:26:20.559Z,0.00
2018-06-28T00:27:20.558Z,0.00
2018-06-28T00:28:20.622Z,0.00
2018-06-28T00:29:20.632Z,0.00
2018-06-28T00:30:20.652Z,0.00
2018-06-28T00:31:20.621Z,0.00
2018-06-28T00:32:20.643Z,0.00
2018-06-28T00:33:20.636Z,0.00
2018-06-28T00:34:20.661Z,0.00
2018-06-28T00:35:20.713Z,0.00
2018-06-28T00:36:20.680Z,0.00
2018-06-28T00:37:20.687Z,0.00
2018-06-28T00:38:20.698Z,0.00
2018-06-28T00:39:20.724Z,0.00
2018-06-28T00:40:20.759Z,0.00
2018-06-28T00:41:20.758Z,0.00
2018-06-28T00:42:20.775Z,0.00
2018-06-28T00:43:20.767Z,0.00
2018-06-28T00:44:20.786Z,0.00
2018-06-28T00:45:20.825Z,0.00
2018-06-28T00:46:20.870Z,0.00
2018-06-28T00:47:20.817Z,0.00
2018-06-28T00:48:20.851Z,0.00
2018-06-28T00:49:20.852Z,0.00
2018-06-28T00:50:20.889Z,0.00
2018-06-28T00:51:20.898Z,0.00
2018-06-28T00:52:20.916Z,0.00
2018-06-28T00:53:20.935Z,0.00
2018-06-28T00:54:20.912Z,0.00
2018-06-28T00:55:20.924Z,0.00
2018-06-28T00:56:20.922Z,0.00
2018-06-28T00:57:20.960Z,0.00
2018-06-28T00:58:21.004Z,0.00
2018-06-28T00:59:20.966Z,0.00
2018-06-28T01:00:20.998Z,0.00
2018-06-28T01:01:21.005Z,0.00
2018-06-28T01:02:21.053Z,0.00
2018-06-28T01:03:21.063Z,0.00
2018-06-28T01:04:21.025Z,0.00
2018-06-28T01:05:21.036Z,0.00
2018-06-28T01:06:21.066Z,0.00
2018-06-28T01:07:21.115Z,0.00
2018-06-28T01:08:21.111Z,0.00
2018-06-28T01:09:21.095Z,0.00
2018-06-28T01:10:21.103Z,0.00
2018-06-28T01:11:21.127Z,0.00
2018-06-28T01:12:21.192Z,0.00
2018-06-28T01:13:21.149Z,0.00
2018-06-28T01:14:21.165Z,0.00
2018-06-28T01:15:21.175Z,0.00
2018-06-28T01:16:21.207Z,0.00
2018-06-28T01:17:21.224Z,0.00
2018-06-28T01:18:21.238Z,0.00
2018-06-28T01:19:21.222Z,0.00
2018-06-28T01:20:21.239Z,0.00
2018-06-28T01:21:21.252Z,0.00
2018-06-28T01:22:21.266Z,0.00
2018-06-28T01:23:21.326Z,0.00
2018-06-28T01:24:21.290Z,0.00
2018-06-28T01:25:21.343Z,0.00
2018-06-28T01:26:21.336Z,0.00
2018-06-28T01:27:21.344Z,0.00
2018-06-28T01:28:21.343Z,0.00
2018-06-28T01:29:21.345Z,0.00
2018-06-28T01:30:21.410Z,0.00
2018-06-28T01:31:21.374Z,0.00
2018-06-28T01:32:21.389Z,0.00
2018-06-28T01:33:21.395Z,0.00
2018-06-28T01:34:21.435Z,0.00
2018-06-28T01:35:21.473Z,0.00
2018-06-28T01:36:21.430Z,0.00
2018-06-28T01:37:21.455Z,0.00
2018-06-28T01:38:21.483Z,0.00
2018-06-28T01:39:21.479Z,0.00
2018-06-28T01:40:21.546Z,0.00
2018-06-28T01:41:21.505Z,0.00
2018-06-28T01:42:21.513Z,0.00
2018-06-28T01:43:21.530Z,0.00
2018-06-28T01:44:21.535Z,0.00
2018-06-28T01:45:21.592Z,0.00
2018-06-28T01:46:21.566Z,0.00
2018-06-28T01:47:21.576Z,0.00
2018-06-28T01:48:21.594Z,0.00
2018-06-28T01:49:21.607Z,0.00
2018-06-28T01:50:21.659Z,0.00
2018-06-28T01:51:21.622Z,0.00
2018-06-28T01:52:21.641Z,0.00
2018-06-28T01:53:21.651Z,0.00
2018-06-28T01:54:21.661Z,0.00
2018-06-28T01:55:21.709Z,0.00
2018-06-28T01:56:21.705Z,0.00
2018-06-28T01:57:21.701Z,0.00
2018-06-28T01:58:21.716Z,0.00
2018-06-28T01:59:21.720Z,0.00
2018-06-28T02:00:21.778Z,0.00
2018-06-28T02:01:21.794Z,0.00
2018-06-28T02:02:21.762Z,0.00
2018-06-28T02:03:21.786Z,0.00
2018-06-28T02:04:21.816Z,0.00
2018-06-28T02:05:21.810Z,0.00
2018-06-28T02:06:21.845Z,4.00
2018-06-28T02:07:21.824Z,4.00
2018-06-28T02:08:21.838Z,0.00
2018-06-28T02:09:21.852Z,0.00
2018-06-28T02:10:21.855Z,4.00
2018-06-28T02:11:21.928Z,4.00
2018-06-28T02:12:21.902Z,0.00
2018-06-28T02:13:21.891Z,4.00
2018-06-28T02:14:21.923Z,4.00
2018-06-28T02:15:21.939Z,4.00
2018-06-28T02:16:21.982Z,4.00
2018-06-28T02:17:21.952Z,4.00
2018-06-28T02:18:21.968Z,8.00
2018-06-28T02:19:21.983Z,8.00
2018-06-28T02:20:21.993Z,4.00
2018-06-28T02:21:22.032Z,8.00
2018-06-28T02:22:22.084Z,8.00
2018-06-28T02:23:22.020Z,8.00
2018-06-28T02:24:22.046Z,8.00
2018-06-28T02:25:22.112Z,12.00
2018-06-28T02:26:22.095Z,12.00
2018-06-28T02:27:22.121Z,16.00
2018-06-28T02:28:22.081Z,16.00
2018-06-28T02:29:22.104Z,16.00
2018-06-28T02:30:22.114Z,16.00
2018-06-28T02:31:22.122Z,20.00
2018-06-28T02:32:22.163Z,24.00
2018-06-28T02:33:22.161Z,24.00
2018-06-28T02:34:22.189Z,28.00
2018-06-28T02:35:22.176Z,28.00
2018-06-28T02:36:22.196Z,32.00
2018-06-28T02:37:22.217Z,32.00
2018-06-28T02:38:22.254Z,36.00
2018-06-28T02:39:22.256Z,36.00
2018-06-28T02:40:22.237Z,40.00
2018-06-28T02:41:22.249Z,44.00
2018-06-28T02:42:22.290Z,48.00
2018-06-28T02:43:22.279Z,48.00
2018-06-28T02:44:22.284Z,52.00
2018-06-28T02:45:22.345Z,56.00
2018-06-28T02:46:22.318Z,60.00
2018-06-28T02:47:22.314Z,60.00
2018-06-28T02:48:22.399Z,68.00
2018-06-28T02:49:22.354Z,72.00
2018-06-28T02:50:22.435Z,76.00
2018-06-28T02:51:22.371Z,80.00
2018-06-28T02:52:22.387Z,80.00
2018-06-28T02:53:22.451Z,88.00
2018-06-28T02:54:22.424Z,92.00
2018-06-28T02:55:22.446Z,96.00
2018-06-28T02:56:22.435Z,100.00
2018-06-28T02:57:22.444Z,108.00
2018-06-28T02:58:22.452Z,116.00
2018-06-28T02:59:22.518Z,124.00
2018-06-28T03:00:22.479Z,128.00
2018-06-28T03:01:22.506Z,136.00
2018-06-28T03:02:22.519Z,144.00
2018-06-28T03:03:22.565Z,148.00
2018-06-28T03:04:22.564Z,160.00
2018-06-28T03:05:22.571Z,168.00
2018-06-28T03:06:22.608Z,176.00
2018-06-28T03:07:22.565Z,188.00
2018-06-28T03:08:22.580Z,200.00
2018-06-28T03:09:22.598Z,212.00
2018-06-28T03:10:22.601Z,224.00
2018-06-28T03:11:22.647Z,236.00
2018-06-28T03:12:22.662Z,256.00
2018-06-28T03:13:22.643Z,276.00
2018-06-28T03:14:22.691Z,300.00
2018-06-28T03:15:22.676Z,332.00
2018-06-28T03:16:22.691Z,368.00
2018-06-28T03:17:22.739Z,424.00
2018-06-28T03:18:22.693Z,464.00
2018-06-28T03:19:22.724Z,472.00
2018-06-28T03:20:22.735Z,504.00
2018-06-28T03:21:22.773Z,556.00
2018-06-28T03:22:22.784Z,648.00
2018-06-28T03:23:22.770Z,724.00
2018-06-28T03:24:22.773Z,768.00
2018-06-28T03:25:22.813Z,772.00
2018-06-28T03:26:22.812Z,752.00
2018-06-28T03:27:22.855Z,724.00
2018-06-28T03:28:22.822Z,676.00
2018-06-28T03:29:22.872Z,596.00
2018-06-28T03:30:22.858Z,580.00
2018-06-28T03:31:22.884Z,624.00
2018-06-28T03:32:22.898Z,672.00
2018-06-28T03:33:22.900Z,772.00
2018-06-28T03:34:22.945Z,940.00
2018-06-28T03:35:22.917Z,1108.00
2018-06-28T03:36:22.940Z,1204.00
2018-06-28T03:37:22.926Z,1184.00
2018-06-28T03:38:22.958Z,1008.00
2018-06-28T03:39:23.011Z,984.00
2018-06-28T03:40:22.975Z,1036.00
2018-06-28T03:41:22.982Z,1060.00
2018-06-28T03:42:23.015Z,1136.00
2018-06-28T03:43:23.033Z,1216.00
2018-06-28T03:44:23.037Z,1216.00
2018-06-28T03:45:23.064Z,1072.00
2018-06-28T03:46:23.053Z,936.00
2018-06-28T03:47:23.090Z,852.00
2018-06-28T03:48:23.079Z,884.00
2018-06-28T03:49:23.091Z,996.00
2018-06-28T03:50:23.160Z,1076.00
2018-06-28T03:51:23.109Z,1060.00
2018-06-28T03:52:25.840Z,1056.00
2018-06-28T03:53:23.147Z,1116.00
2018-06-28T03:54:23.159Z,1196.00
2018-06-28T03:55:23.196Z,1280.00
2018-06-28T03:56:23.180Z,1372.00
2018-06-28T03:57:23.193Z,1532.00
2018-06-28T03:58:23.217Z,1588.00
2018-06-28T03:59:23.248Z,1556.00
2018-06-28T04:00:23.233Z,1672.00
2018-06-28T04:01:23.252Z,1872.00
2018-06-28T04:02:23.261Z,1764.00
2018-06-28T04:03:23.309Z,1748.00
2018-06-28T04:04:23.282Z,1780.00
2018-06-28T04:05:23.287Z,1864.00
2018-06-28T04:06:23.297Z,1996.00
2018-06-28T04:07:23.312Z,2004.00
2018-06-28T04:08:23.376Z,2156.00
2018-06-28T04:09:23.363Z,2140.00
2018-06-28T04:10:23.357Z,2196.00
2018-06-28T04:11:23.369Z,2212.00
2018-06-28T04:12:23.390Z,2308.00
2018-06-28T04:13:23.442Z,2232.00
2018-06-28T04:14:23.417Z,2252.00
2018-06-28T04:15:23.410Z,2476.00
2018-06-28T04:16:23.471Z,2468.00
2018-06-28T04:17:23.431Z,2200.00
2018-06-28T04:18:23.449Z,1896.00
2018-06-28T04:19:23.472Z,2008.00
2018-06-28T04:20:23.548Z,1976.00
2018-06-28T04:21:23.498Z,2044.00
2018-06-28T04:22:23.512Z,2060.00
2018-06-28T04:23:23.515Z,2052.00
2018-06-28T04:24:23.527Z,2016.00
2018-06-28T04:25:23.580Z,2216.00
2018-06-28T04:26:23.548Z,3200.00
2018-06-28T04:27:23.641Z,3544.00
2018-06-28T04:28:23.575Z,3816.00
2018-06-28T04:29:23.607Z,4164.00
2018-06-28T04:30:23.633Z,3868.00
2018-06-28T04:31:23.633Z,3672.00
2018-06-28T04:32:23.628Z,3216.00
2018-06-28T04:33:23.750Z,2796.00
2018-06-28T04:34:23.655Z,3524.00
2018-06-28T04:35:23.700Z,3736.00
2018-06-28T04:36:23.694Z,3680.00
2018-06-28T04:37:23.684Z,4340.00
2018-06-28T04:38:23.738Z,3892.00
2018-06-28T04:39:23.724Z,4164.00
2018-06-28T04:40:23.742Z,3884.00
2018-06-28T04:41:23.739Z,3544.00
2018-06-28T04:42:23.778Z,3516.00
2018-06-28T04:43:23.810Z,3796.00
2018-06-28T04:44:23.789Z,5160.00
2018-06-28T04:45:23.799Z,4848.00
2018-06-28T04:46:23.840Z,4364.00
2018-06-28T04:47:23.836Z,4372.00
2018-06-28T04:48:23.865Z,3716.00
2018-06-28T04:49:23.855Z,3532.00
2018-06-28T04:50:23.894Z,3852.00
2018-06-28T04:51:23.874Z,4132.00
2018-06-28T04:52:23.879Z,4508.00
2018-06-28T04:53:23.903Z,4740.00
2018-06-28T04:54:23.931Z,4884.00
2018-06-28T04:55:23.966Z,5668.00
2018-06-28T04:56:23.951Z,5952.00
2018-06-28T04:57:23.971Z,5040.00
2018-06-28T04:58:23.966Z,4836.00
2018-06-28T04:59:23.979Z,5336.00
2018-06-28T05:00:24.045Z,5396.00
2018-06-28T05:01:24.158Z,5400.00
2018-06-28T05:02:24.037Z,4884.00
2018-06-28T05:03:24.053Z,2236.00
2018-06-28T05:04:24.095Z,4480.00
2018-06-28T05:05:24.069Z,4708.00
2018-06-28T05:06:24.073Z,4688.00
2018-06-28T05:07:24.089Z,4068.00
2018-06-28T05:08:24.133Z,4888.00
2018-06-28T05:09:24.148Z,5628.00
2018-06-28T05:10:24.138Z,6084.00
2018-06-28T05:11:24.146Z,6672.00
2018-06-28T05:12:24.194Z,7460.00
2018-06-28T05:13:24.220Z,8104.00
2018-06-28T05:14:24.203Z,8464.00
2018-06-28T05:15:24.216Z,9520.00
2018-06-28T05:16:24.216Z,9068.00
2018-06-28T05:17:24.244Z,7352.00
2018-06-28T05:18:24.279Z,8120.00
2018-06-28T05:19:24.296Z,8596.00
2018-06-28T05:20:24.300Z,10060.00
2018-06-28T05:21:24.332Z,9976.00
2018-06-28T05:22:24.311Z,8928.00
2018-06-28T05:23:24.345Z,8136.00
2018-06-28T05:24:24.328Z,9556.00
2018-06-28T05:25:24.351Z,9392.00
2018-06-28T05:26:24.404Z,10772.00
2018-06-28T05:27:24.417Z,11180.00
2018-06-28T05:28:24.461Z,12128.00
2018-06-28T05:29:24.447Z,12284.00
2018-06-28T05:30:24.434Z,12532.00
2018-06-28T05:31:24.449Z,11600.00
2018-06-28T05:32:24.451Z,9248.00
2018-06-28T05:33:24.471Z,7628.00
2018-06-28T05:34:24.502Z,5692.00
2018-06-28T05:35:24.505Z,6500.00
2018-06-28T05:36:24.527Z,7096.00
2018-06-28T05:37:24.534Z,7840.00
2018-06-28T05:38:24.603Z,8984.00
2018-06-28T05:39:24.608Z,8924.00
2018-06-28T05:40:24.599Z,7704.00
2018-06-28T05:41:24.586Z,6392.00
2018-06-28T05:42:24.610Z,6712.00
2018-06-28T05:43:24.687Z,5744.00
2018-06-28T05:44:24.708Z,5480.00
2018-06-28T05:45:24.675Z,4500.00
2018-06-28T05:46:24.675Z,4960.00
2018-06-28T05:47:24.687Z,4684.00
2018-06-28T05:48:24.702Z,4364.00
2018-06-28T05:49:24.770Z,4272.00
2018-06-28T05:50:24.728Z,3608.00
2018-06-28T05:51:24.758Z,3144.00
2018-06-28T05:52:24.856Z,2796.00
2018-06-28T05:53:24.833Z,2492.00
2018-06-28T05:54:24.828Z,2412.00
2018-06-28T05:55:24.899Z,2384.00
2018-06-28T05:56:24.837Z,2300.00
2018-06-28T05:57:24.909Z,2216.00
2018-06-28T05:58:24.871Z,2188.00
2018-06-28T05:59:24.962Z,2312.00
2018-06-28T06:00:24.893Z,2228.00
2018-06-28T06:01:24.970Z,2328.00
2018-06-28T06:02:24.972Z,2348.00
2018-06-28T06:03:24.974Z,2348.00
2018-06-28T06:04:25.042Z,2344.00
2018-06-28T06:05:25.006Z,2328.00
2018-06-28T06:06:24.982Z,2292.00
2018-06-28T06:07:25.045Z,2268.00
2018-06-28T06:08:25.036Z,2236.00
2018-06-28T06:09:25.053Z,2168.00
2018-06-28T06:10:25.182Z,2116.00
2018-06-28T06:11:25.053Z,2148.00
2018-06-28T06:12:25.091Z,2120.00
2018-06-28T06:13:25.087Z,2116.00
2018-06-28T06:14:25.117Z,2084.00
2018-06-28T06:15:25.159Z,2016.00
2018-06-28T06:16:25.164Z,1988.00
2018-06-28T06:17:25.146Z,2048.00
2018-06-28T06:18:25.157Z,1996.00
2018-06-28T06:19:25.163Z,2072.00
2018-06-28T06:20:25.288Z,2092.00
2018-06-28T06:21:25.230Z,2072.00
2018-06-28T06:22:25.276Z,1980.00
2018-06-28T06:23:25.236Z,1912.00
2018-06-28T06:24:25.248Z,1912.00
2018-06-28T06:25:25.262Z,1876.00
2018-06-28T06:26:25.300Z,1844.00
2018-06-28T06:27:25.310Z,1856.00
2018-06-28T06:28:25.338Z,1948.00
2018-06-28T06:29:25.327Z,1896.00
2018-06-28T06:30:25.410Z,1860.00
2018-06-28T06:31:25.368Z,1984.00
2018-06-28T06:32:25.381Z,1980.00
2018-06-28T06:33:25.364Z,1912.00
2018-06-28T06:34:25.425Z,1920.00
2018-06-28T06:35:25.389Z,1912.00
2018-06-28T06:36:25.439Z,1892.00
2018-06-28T06:37:25.426Z,1868.00
2018-06-28T06:38:25.439Z,1888.00
2018-06-28T06:39:25.468Z,1888.00
2018-06-28T06:40:25.467Z,1844.00
2018-06-28T06:41:25.471Z,1892.00
2018-06-28T06:42:25.495Z,1884.00
2018-06-28T06:43:25.727Z,1936.00
2018-06-28T06:44:25.532Z,1920.00
2018-06-28T06:45:25.560Z,1908.00
2018-06-28T06:46:25.652Z,1992.00
2018-06-28T06:47:25.572Z,2048.00
2018-06-28T06:48:25.573Z,1796.00
2018-06-28T06:49:25.628Z,2072.00
2018-06-28T06:50:25.648Z,2136.00
2018-06-28T06:51:25.640Z,2448.00
2018-06-28T06:52:25.647Z,2492.00
2018-06-28T06:53:25.652Z,2316.00
2018-06-28T06:54:25.676Z,2464.00
2018-06-28T06:55:25.713Z,3140.00
2018-06-28T06:56:25.942Z,2416.00
2018-06-28T06:57:25.702Z,2020.00
2018-06-28T06:58:25.716Z,1880.00
2018-06-28T06:59:25.736Z,1908.00
2018-06-28T07:00:25.769Z,1884.00
2018-06-28T07:01:25.773Z,1684.00
2018-06-28T07:02:25.812Z,1680.00
2018-06-28T07:03:25.814Z,1628.00
2018-06-28T07:04:25.865Z,1632.00
2018-06-28T07:05:25.841Z,1672.00
2018-06-28T07:06:25.838Z,1656.00
2018-06-28T07:07:25.886Z,1644.00
2018-06-28T07:08:25.868Z,1632.00
2018-06-28T07:09:25.910Z,1624.00
2018-06-28T07:10:26.028Z,1728.00
2018-06-28T07:11:25.900Z,1720.00
2018-06-28T07:12:25.937Z,1676.00
2018-06-28T07:13:25.959Z,1700.00
2018-06-28T07:14:25.943Z,1676.00
2018-06-28T07:15:25.972Z,1672.00
2018-06-28T07:16:25.956Z,1644.00
2018-06-28T07:17:25.985Z,1612.00
2018-06-28T07:18:26.029Z,1548.00
2018-06-28T07:19:26.002Z,1560.00
2018-06-28T07:20:26.064Z,1584.00
2018-06-28T07:21:26.057Z,1664.00
2018-06-28T07:22:26.111Z,1660.00
2018-06-28T07:23:26.124Z,1664.00
2018-06-28T07:24:26.134Z,1648.00
2018-06-28T07:25:26.095Z,1660.00
2018-06-28T07:26:26.136Z,1692.00
2018-06-28T07:27:26.120Z,1700.00
2018-06-28T07:28:26.159Z,1720.00
2018-06-28T07:29:26.180Z,1680.00
2018-06-28T07:30:26.169Z,1696.00
2018-06-28T07:31:26.208Z,1740.00
2018-06-28T07:32:26.194Z,1716.00
2018-06-28T07:33:26.212Z,1612.00
2018-06-28T07:34:26.247Z,1572.00
2018-06-28T07:35:26.263Z,1568.00
2018-06-28T07:36:26.292Z,1472.00
2018-06-28T07:37:26.302Z,1524.00
2018-06-28T07:38:26.289Z,1540.00
2018-06-28T07:39:26.300Z,1492.00
2018-06-28T07:40:26.304Z,1468.00
2018-06-28T07:41:26.354Z,1476.00
2018-06-28T07:42:26.388Z,1444.00
2018-06-28T07:43:26.361Z,1512.00
2018-06-28T07:44:26.368Z,1508.00
2018-06-28T07:45:26.402Z,1536.00
2018-06-28T07:46:26.429Z,1516.00
2018-06-28T07:47:26.407Z,1548.00
2018-06-28T07:48:26.426Z,1544.00
2018-06-28T07:49:26.456Z,1516.00
2018-06-28T07:50:26.504Z,1540.00
2018-06-28T07:51:26.471Z,1576.00
2018-06-28T07:52:26.484Z,1652.00
2018-06-28T07:53:26.490Z,1648.00
2018-06-28T07:54:26.510Z,1612.00
2018-06-28T07:55:26.597Z,1516.00
2018-06-28T07:56:26.555Z,1576.00
2018-06-28T07:57:26.615Z,1540.00
2018-06-28T07:58:26.560Z,1552.00
2018-06-28T07:59:26.588Z,1584.00
2018-06-28T08:00:26.615Z,1572.00
2018-06-28T08:01:26.629Z,1548.00
2018-06-28T08:02:26.655Z,1584.00
2018-06-28T08:03:26.634Z,1648.00
2018-06-28T08:04:26.664Z,1632.00
2018-06-28T08:05:26.680Z,1640.00
2018-06-28T08:06:26.680Z,1636.00
2018-06-28T08:07:26.748Z,1656.00
2018-06-28T08:08:26.751Z,1664.00
2018-06-28T08:09:26.721Z,1648.00
2018-06-28T08:10:26.758Z,1644.00
2018-06-28T08:11:26.759Z,1628.00
2018-06-28T08:12:26.804Z,1628.00
2018-06-28T08:13:26.791Z,1620.00
2018-06-28T08:14:26.820Z,1604.00
2018-06-28T08:15:26.807Z,1448.00
2018-06-28T08:16:26.871Z,1328.00
2018-06-28T08:17:26.840Z,1268.00
2018-06-28T08:18:26.889Z,1228.00
2018-06-28T08:19:26.897Z,1252.00
2018-06-28T08:20:26.920Z,1232.00
2018-06-28T08:21:26.966Z,1196.00
2018-06-28T08:22:26.923Z,1284.00
2018-06-28T08:23:26.926Z,1244.00
2018-06-28T08:24:26.949Z,1288.00
2018-06-28T08:25:27.005Z,1312.00
2018-06-28T08:26:26.983Z,1356.00
2018-06-28T08:27:26.997Z,1364.00
2018-06-28T08:28:27.010Z,1404.00
2018-06-28T08:29:27.029Z,1488.00
2018-06-28T08:30:27.065Z,1472.00
2018-06-28T08:31:27.133Z,1500.00
2018-06-28T08:32:27.080Z,1496.00
2018-06-28T08:33:27.091Z,1568.00
2018-06-28T08:34:27.093Z,1540.00
2018-06-28T08:35:27.108Z,1536.00
2018-06-28T08:36:27.159Z,1528.00
2018-06-28T08:37:27.131Z,1448.00
2018-06-28T08:38:27.181Z,1480.00
2018-06-28T08:39:27.172Z,1424.00
2018-06-28T08:40:27.182Z,1444.00
2018-06-28T08:41:27.237Z,1496.00
2018-06-28T08:42:27.284Z,1524.00
2018-06-28T08:43:27.216Z,1488.00
2018-06-28T08:44:27.261Z,1560.00
2018-06-28T08:45:27.264Z,1552.00
2018-06-28T08:46:27.290Z,1556.00
2018-06-28T08:47:27.283Z,1560.00
2018-06-28T08:48:27.304Z,1680.00
2018-06-28T08:49:27.341Z,1560.00
2018-06-28T08:50:27.344Z,1584.00
2018-06-28T08:51:27.384Z,1580.00
2018-06-28T08:52:27.419Z,1580.00
2018-06-28T08:53:27.392Z,1620.00
2018-06-28T08:54:27.402Z,1628.00
2018-06-28T08:55:27.414Z,1620.00
2018-06-28T08:56:27.425Z,1628.00
2018-06-28T08:57:27.515Z,1628.00
2018-06-28T08:58:27.463Z,1624.00
2018-06-28T08:59:27.478Z,1628.00
2018-06-28T09:00:27.478Z,1668.00
2018-06-28T09:01:27.485Z,1700.00
2018-06-28T09:02:27.568Z,1696.00
2018-06-28T09:03:27.546Z,1760.00
2018-06-28T09:04:27.552Z,1672.00
2018-06-28T09:05:27.559Z,1704.00
2018-06-28T09:06:27.673Z,1620.00
2018-06-28T09:07:27.627Z,1716.00
2018-06-28T09:08:27.647Z,1756.00
2018-06-28T09:09:27.650Z,1776.00
2018-06-28T09:10:27.646Z,1724.00
2018-06-28T09:11:27.661Z,1752.00
2018-06-28T09:12:27.686Z,1740.00
2018-06-28T09:13:27.707Z,1756.00
2018-06-28T09:14:27.690Z,1932.00
2018-06-28T09:15:27.787Z,2084.00
2018-06-28T09:16:27.744Z,1944.00
2018-06-28T09:17:27.757Z,1936.00
2018-06-28T09:18:27.767Z,1940.00
2018-06-28T09:19:27.820Z,1844.00
2018-06-28T09:20:27.837Z,1752.00
2018-06-28T09:21:27.810Z,1816.00
2018-06-28T09:22:27.850Z,1820.00
2018-06-28T09:23:27.866Z,1808.00
2018-06-28T09:24:27.845Z,1784.00
2018-06-28T09:25:27.904Z,1812.00
2018-06-28T09:26:27.944Z,1896.00
2018-06-28T09:27:27.888Z,1888.00
2018-06-28T09:28:27.920Z,1936.00
2018-06-28T09:29:27.929Z,1960.00
2018-06-28T09:30:27.961Z,1848.00
2018-06-28T09:31:27.975Z,2024.00
2018-06-28T09:32:28.023Z,1976.00
2018-06-28T09:33:27.990Z,2052.00
2018-06-28T09:34:28.028Z,2044.00
2018-06-28T09:35:28.019Z,1876.00
2018-06-28T09:36:28.046Z,2084.00
2018-06-28T09:37:28.068Z,2128.00
2018-06-28T09:38:28.069Z,2160.00
2018-06-28T09:39:28.118Z,1960.00
2018-06-28T09:40:28.084Z,2184.00
2018-06-28T09:41:28.147Z,2208.00
2018-06-28T09:42:28.173Z,2216.00
2018-06-28T09:43:28.147Z,2212.00
2018-06-28T09:44:28.159Z,2204.00
2018-06-28T09:45:28.211Z,2176.00
2018-06-28T09:46:28.198Z,2184.00
2018-06-28T09:47:28.209Z,2180.00
2018-06-28T09:48:28.261Z,2184.00
2018-06-28T09:49:28.247Z,2040.00
2018-06-28T09:50:28.247Z,2204.00
2018-06-28T09:51:28.254Z,2228.00
2018-06-28T09:52:28.272Z,2192.00
2018-06-28T09:53:28.372Z,2276.00
2018-06-28T09:54:28.321Z,2312.00
2018-06-28T09:55:28.336Z,2328.00
2018-06-28T09:56:28.345Z,2372.00
2018-06-28T09:57:28.354Z,2400.00
2018-06-28T09:58:28.417Z,2424.00
2018-06-28T09:59:28.387Z,2440.00
2018-06-28T10:00:28.439Z,2452.00
2018-06-28T10:01:28.426Z,2504.00
2018-06-28T10:02:28.442Z,2480.00
2018-06-28T10:03:28.502Z,2516.00
2018-06-28T10:04:28.542Z,2716.00
2018-06-28T10:05:28.486Z,2732.00
2018-06-28T10:06:28.497Z,2508.00
2018-06-28T10:07:28.529Z,2344.00
2018-06-28T10:08:28.554Z,2560.00
2018-06-28T10:09:28.583Z,2384.00
2018-06-28T10:10:28.591Z,2512.00
2018-06-28T10:11:28.585Z,2600.00
2018-06-28T10:12:28.593Z,2740.00
2018-06-28T10:13:28.605Z,2252.00
2018-06-28T10:14:28.618Z,2632.00
2018-06-28T10:15:28.689Z,2632.00
2018-06-28T10:16:28.666Z,2612.00
2018-06-28T10:17:28.703Z,2528.00
2018-06-28T10:18:28.704Z,2588.00
2018-06-28T10:19:28.714Z,2584.00
2018-06-28T10:20:28.805Z,2228.00
2018-06-28T10:21:28.744Z,2564.00
2018-06-28T10:22:28.750Z,2544.00
2018-06-28T10:23:28.784Z,2628.00
2018-06-28T10:24:28.786Z,2588.00
2018-06-28T10:25:28.885Z,2568.00
2018-06-28T10:26:28.815Z,2588.00
2018-06-28T10:27:28.835Z,2612.00
2018-06-28T10:28:28.877Z,2580.00
2018-06-28T10:29:28.875Z,2516.00
2018-06-28T10:30:28.893Z,2484.00
2018-06-28T10:31:28.898Z,2452.00
2018-06-28T10:32:28.907Z,2388.00
2018-06-28T10:33:28.951Z,2340.00
2018-06-28T10:34:28.998Z,2340.00
2018-06-28T10:35:28.960Z,2368.00
2018-06-28T10:36:28.981Z,2324.00
2018-06-28T10:37:28.981Z,2312.00
2018-06-28T10:38:29.088Z,2292.00
2018-06-28T10:39:29.034Z,2312.00
2018-06-28T10:40:29.115Z,2340.00
2018-06-28T10:41:29.066Z,2296.00
2018-06-28T10:42:29.074Z,2260.00
2018-06-28T10:43:29.116Z,2216.00
2018-06-28T10:44:29.138Z,2256.00
2018-06-28T10:45:29.133Z,2268.00
2018-06-28T10:46:29.220Z,2292.00
2018-06-28T10:47:29.176Z,2296.00
2018-06-28T10:48:29.174Z,2132.00
2018-06-28T10:49:29.196Z,2176.00
2018-06-28T10:50:29.238Z,2252.00
2018-06-28T10:51:29.289Z,2244.00
2018-06-28T10:52:29.234Z,2232.00
2018-06-28T10:53:29.266Z,2032.00
2018-06-28T10:54:29.277Z,1996.00
2018-06-28T10:55:29.288Z,2040.00
2018-06-28T10:56:29.350Z,2052.00
2018-06-28T10:57:29.368Z,1924.00
2018-06-28T10:58:29.335Z,2340.00
2018-06-28T10:59:29.388Z,2444.00
2018-06-28T11:00:29.391Z,2648.00
2018-06-28T11:01:29.424Z,2604.00
2018-06-28T11:02:29.417Z,2448.00
2018-06-28T11:03:29.411Z,2484.00
2018-06-28T11:04:29.445Z,2428.00
2018-06-28T11:05:29.451Z,2172.00
2018-06-28T11:06:29.462Z,2036.00
2018-06-28T11:07:29.503Z,2048.00
2018-06-28T11:08:29.495Z,2116.00
2018-06-28T11:09:29.637Z,2124.00
2018-06-28T11:10:29.517Z,2148.00
2018-06-28T11:11:29.558Z,2096.00
2018-06-28T11:12:29.625Z,2388.00
2018-06-28T11:13:29.571Z,2552.00
2018-06-28T11:14:29.627Z,2424.00
2018-06-28T11:15:29.602Z,2244.00
2018-06-28T11:16:29.628Z,2252.00
2018-06-28T11:17:29.695Z,2312.00
2018-06-28T11:18:29.711Z,2420.00
2018-06-28T11:19:29.693Z,2072.00
2018-06-28T11:20:29.723Z,2076.00
2018-06-28T11:21:29.722Z,2152.00
2018-06-28T11:22:29.771Z,2248.00
2018-06-28T11:23:29.788Z,2252.00
2018-06-28T11:24:29.752Z,2400.00
2018-06-28T11:25:29.770Z,2428.00
2018-06-28T11:26:29.780Z,2252.00
2018-06-28T11:27:29.840Z,2292.00
2018-06-28T11:28:29.850Z,2420.00
2018-06-28T11:29:29.846Z,2460.00
2018-06-28T11:30:29.844Z,2408.00
2018-06-28T11:31:29.875Z,2496.00
2018-06-28T11:32:29.878Z,2272.00
2018-06-28T11:33:29.929Z,2348.00
2018-06-28T11:34:29.913Z,2220.00
2018-06-28T11:35:29.967Z,2360.00
2018-06-28T11:36:29.970Z,2352.00
2018-06-28T11:37:29.977Z,2228.00
2018-06-28T11:38:30.086Z,2412.00
2018-06-28T11:39:30.032Z,2520.00
2018-06-28T11:40:29.999Z,2552.00
2018-06-28T11:41:30.054Z,2576.00
2018-06-28T11:42:30.082Z,2316.00
2018-06-28T11:43:30.056Z,2160.00
2018-06-28T11:44:30.112Z,2276.00
2018-06-28T11:45:30.099Z,2336.00
2018-06-28T11:46:30.110Z,2448.00
2018-06-28T12:03:56.190Z,2244.00
2018-06-28T12:04:56.170Z,2064.00
2018-06-28T12:05:56.182Z,2112.00
2018-06-28T12:06:56.193Z,2072.00
2018-06-28T12:07:56.210Z,2136.00
2018-06-28T12:08:56.247Z,2244.00
2018-06-28T12:09:56.258Z,2188.00
2018-06-28T12:10:56.268Z,2216.00
2018-06-28T12:11:56.316Z,2320.00
2018-06-28T12:12:56.281Z,2300.00
2018-06-28T12:13:56.300Z,2164.00
2018-06-28T12:14:56.379Z,2164.00
2018-06-28T12:15:56.383Z,2244.00
2018-06-28T12:16:56.354Z,2152.00
2018-06-28T12:17:56.369Z,2036.00
2018-06-28T12:18:56.395Z,1992.00
2018-06-28T12:19:56.452Z,1800.00
2018-06-28T12:20:56.457Z,1936.00
2018-06-28T12:21:56.454Z,1952.00
2018-06-28T12:22:56.479Z,1920.00
2018-06-28T12:23:56.480Z,1968.00
2018-06-28T12:24:56.475Z,1744.00
2018-06-28T12:25:56.532Z,1956.00
2018-06-28T12:26:56.528Z,1832.00
2018-06-28T12:27:56.531Z,2040.00
2018-06-28T12:28:56.548Z,1888.00
2018-06-28T12:29:56.578Z,1856.00
2018-06-28T12:30:56.633Z,1632.00
2018-06-28T12:31:56.667Z,1668.00
2018-06-28T12:32:56.613Z,1640.00
2018-06-28T12:33:56.637Z,1736.00
2018-06-28T12:34:56.638Z,1716.00
2018-06-28T12:35:56.658Z,1620.00
2018-06-28T12:36:56.717Z,1660.00
2018-06-28T12:37:56.733Z,1696.00